createdAt,value
2018-09-10T00:00:37.066Z,0
2018-09-10T00:01:37.760Z,0
2018-09-10T00:02:38.173Z,0
2018-09-10T00:03:38.596Z,0
2018-09-10T00:04:39.012Z,0
2018-09-10T00:05:40.262Z,0
2018-09-10T00:06:40.951Z,0
2018-09-10T00:07:41.641Z,0
2018-09-10T00:08:42.329Z,0
2018-09-10T00:09:42.044Z,0
2018-09-10T00:10:42.456Z,0
2018-09-10T00:11:43.146Z,0
2018-09-10T00:12:43.838Z,0
2018-09-10T00:13:44.253Z,0
2018-09-10T00:14:44.944Z,0
2018-09-10T00:15:45.912Z,0
2018-09-10T00:16:46.327Z,0
2018-09-10T00:17:46.465Z,0
2018-09-10T00:18:47.154Z,0
2018-09-10T00:19:47.415Z,0
2018-09-10T00:20:47.550Z,0
2018-09-10T00:21:47.964Z,0
2018-09-10T00:22:48.098Z,0
2018-09-10T00:23:48.511Z,0
2018-09-10T00:24:48.645Z,0
2018-09-10T00:25:49.060Z,0
2018-09-10T00:26:49.192Z,0
2018-09-10T00:27:49.603Z,0
2018-09-10T00:28:50.017Z,0
2018-09-10T00:29:50.559Z,0
2018-09-10T00:30:50.695Z,0
2018-09-10T00:31:51.109Z,0
2018-09-10T00:32:51.806Z,0
2018-09-10T00:33:52.771Z,0
2018-09-10T00:34:53.466Z,0
2018-09-10T00:35:54.427Z,0
2018-09-10T00:36:54.844Z,0
2018-09-10T00:37:55.530Z,0
2018-09-10T00:38:55.943Z,0
2018-09-10T00:39:56.206Z,0
2018-09-10T00:40:56.341Z,0
2018-09-10T00:41:56.477Z,0
2018-09-10T00:42:57.448Z,0
2018-09-10T00:43:57.862Z,0
2018-09-10T00:44:58.553Z,0
2018-09-10T00:45:58.964Z,0
2018-09-10T00:46:59.661Z,0
2018-09-10T00:47:59.634Z,0
2018-09-10T00:49:00.325Z,0
2018-09-10T00:50:00.587Z,0
2018-09-10T00:51:00.996Z,0
2018-09-10T00:52:01.408Z,0
2018-09-10T00:53:01.543Z,0
2018-09-10T00:54:01.680Z,0
2018-09-10T00:55:02.094Z,0
2018-09-10T00:56:02.507Z,0
2018-09-10T00:57:03.472Z,0
2018-09-10T00:58:03.890Z,0
2018-09-10T00:59:04.328Z,0
2018-09-10T01:00:04.311Z,0
2018-09-10T01:01:04.726Z,0
2018-09-10T01:02:05.137Z,0
2018-09-10T01:03:06.106Z,0
2018-09-10T01:04:06.405Z,0
2018-09-10T01:05:06.651Z,0
2018-09-10T01:06:07.062Z,0
2018-09-10T01:07:07.755Z,0
2018-09-10T01:08:08.448Z,0
2018-09-10T01:09:09.140Z,0
2018-09-10T01:10:09.121Z,0
2018-09-10T01:11:09.816Z,0
2018-09-10T01:12:10.505Z,0
2018-09-10T01:13:10.641Z,0
2018-09-10T01:14:10.775Z,0
2018-09-10T01:15:11.466Z,0
2018-09-10T01:16:11.883Z,0
2018-09-10T01:17:12.573Z,0
2018-09-10T01:18:12.709Z,0
2018-09-10T01:19:13.123Z,0
2018-09-10T01:20:13.945Z,0
2018-09-10T01:21:14.359Z,0
2018-09-10T01:22:14.497Z,0
2018-09-10T01:23:15.187Z,0
2018-09-10T01:24:15.599Z,0
2018-09-10T01:25:16.015Z,0
2018-09-10T01:26:16.701Z,0
2018-09-10T01:27:17.394Z,0
2018-09-10T01:28:17.803Z,0
2018-09-10T01:29:18.216Z,0
2018-09-10T01:30:19.198Z,0
2018-09-10T01:31:19.333Z,0
2018-09-10T01:32:20.038Z,0
2018-09-10T01:33:20.727Z,0
2018-09-10T01:34:21.138Z,0
2018-09-10T01:35:21.271Z,0
2018-09-10T01:36:22.238Z,0
2018-09-10T01:37:22.653Z,0
2018-09-10T01:38:23.348Z,0
2018-09-10T01:39:23.760Z,0
2018-09-10T01:40:25.024Z,0
2018-09-10T01:41:25.160Z,0
2018-09-10T01:42:25.297Z,0
2018-09-10T01:43:25.764Z,0
2018-09-10T01:44:26.175Z,0
2018-09-10T01:45:26.589Z,0
2018-09-10T01:46:26.998Z,0
2018-09-10T01:47:27.965Z,0
2018-09-10T01:48:28.103Z,0
2018-09-10T01:49:29.066Z,0
2018-09-10T01:50:28.771Z,0
2018-09-10T01:51:29.183Z,0
2018-09-10T01:52:29.594Z,0
2018-09-10T01:54:02.397Z,0
2018-09-10T01:54:31.084Z,0
2018-09-10T01:55:31.219Z,0
2018-09-10T01:56:31.633Z,0
2018-09-10T01:57:32.611Z,0
2018-09-10T01:58:33.024Z,0
2018-09-10T01:59:33.437Z,0
2018-09-10T02:00:33.702Z,0
2018-09-10T02:01:34.112Z,0
2018-09-10T02:02:34.247Z,0
2018-09-10T02:03:34.387Z,0
2018-09-10T02:04:34.578Z,0
2018-09-10T02:05:34.929Z,0
2018-09-10T02:06:35.620Z,0
2018-09-10T02:07:36.029Z,0
2018-09-10T02:08:36.718Z,0
2018-09-10T02:09:36.854Z,0
2018-09-10T02:10:38.118Z,0
2018-09-10T02:11:38.531Z,0
2018-09-10T02:12:38.663Z,0
2018-09-10T02:13:38.797Z,0
2018-09-10T02:14:38.937Z,0
2018-09-10T02:15:39.623Z,0
2018-09-10T02:16:40.035Z,0
2018-09-10T02:17:40.452Z,0
2018-09-10T02:18:41.137Z,0
2018-09-10T02:19:41.549Z,0
2018-09-10T02:20:42.699Z,0
2018-09-10T02:21:42.832Z,0
2018-09-10T02:22:43.522Z,0
2018-09-10T02:23:44.429Z,0
2018-09-10T02:24:44.313Z,0
2018-09-10T02:25:44.727Z,0
2018-09-10T02:26:45.419Z,0
2018-09-10T02:27:46.357Z,0
2018-09-10T02:28:46.102Z,0
2018-09-10T02:29:46.517Z,0
2018-09-10T02:30:47.335Z,0
2018-09-10T02:31:48.025Z,0
2018-09-10T02:32:48.441Z,0
2018-09-10T02:33:48.584Z,0
2018-09-10T02:34:49.278Z,0
2018-09-10T02:35:49.412Z,0
2018-09-10T02:36:49.824Z,0
2018-09-10T02:37:50.237Z,0
2018-09-10T02:38:50.649Z,0
2018-09-10T02:39:51.624Z,0
2018-09-10T02:40:51.882Z,0
2018-09-10T02:41:52.018Z,0
2018-09-10T02:42:52.428Z,0
2018-09-10T02:43:53.121Z,0
2018-09-10T02:44:53.253Z,0
2018-09-10T02:45:53.949Z,0
2018-09-10T02:46:54.081Z,0
2018-09-10T02:47:55.052Z,0
2018-09-10T02:48:55.463Z,0
2018-09-10T02:49:55.876Z,0
2018-09-10T02:50:57.135Z,0
2018-09-10T02:51:57.549Z,0
2018-09-10T02:52:57.963Z,0
2018-09-10T02:53:58.653Z,0
2018-09-10T02:54:59.129Z,0
2018-09-10T02:55:59.146Z,0
2018-09-10T02:57:00.387Z,0
2018-09-10T02:58:01.079Z,0
2018-09-10T02:59:01.502Z,0
2018-09-10T03:00:02.833Z,0
2018-09-10T03:01:02.533Z,0
2018-09-10T03:02:02.949Z,0
2018-09-10T03:03:03.640Z,0
2018-09-10T03:04:04.324Z,0
2018-09-10T03:05:04.458Z,0
2018-09-10T03:06:05.149Z,0
2018-09-10T03:07:05.560Z,0
2018-09-10T03:08:06.250Z,0
2018-09-10T03:09:06.662Z,0
2018-09-10T03:10:07.075Z,0
2018-09-10T03:11:08.174Z,0
2018-09-10T03:12:08.587Z,0
2018-09-10T03:13:09.281Z,0
2018-09-10T03:14:09.692Z,0
2018-09-10T03:15:09.825Z,0
2018-09-10T03:16:10.274Z,0
2018-09-10T03:17:10.688Z,0
2018-09-10T03:18:11.376Z,0
2018-09-10T03:19:11.788Z,0
2018-09-10T03:20:12.477Z,0
2018-09-10T03:21:12.740Z,0
2018-09-10T03:22:13.431Z,0
2018-09-10T03:23:14.674Z,0
2018-09-10T03:24:15.844Z,0
2018-09-10T03:25:15.183Z,0
2018-09-10T03:26:15.318Z,0
2018-09-10T03:27:15.731Z,0
2018-09-10T03:28:15.866Z,0
2018-09-10T03:29:16.278Z,0
2018-09-10T03:30:17.260Z,0
2018-09-10T03:31:17.649Z,0
2018-09-10T03:32:17.918Z,0
2018-09-10T03:33:17.603Z,0
2018-09-10T03:34:18.017Z,0
2018-09-10T03:35:18.152Z,0
2018-09-10T03:36:19.121Z,0
2018-09-10T03:37:20.091Z,0
2018-09-10T03:38:20.501Z,0
2018-09-10T03:39:21.190Z,0
2018-09-10T03:40:21.325Z,0
2018-09-10T03:41:21.864Z,0
2018-09-10T03:42:22.832Z,0
2018-09-10T03:43:23.244Z,0
2018-09-10T03:44:23.663Z,0
2018-09-10T03:45:24.072Z,0
2018-09-10T03:46:24.762Z,0
2018-09-10T03:47:25.707Z,0
2018-09-10T03:48:25.588Z,0
2018-09-10T03:49:26.001Z,0
2018-09-10T03:50:26.695Z,0
2018-09-10T03:51:27.228Z,0
2018-09-10T03:52:27.642Z,0
2018-09-10T03:53:28.613Z,0
2018-09-10T03:54:29.300Z,0
2018-09-10T03:55:29.989Z,0
2018-09-10T03:56:45.061Z,0
2018-09-10T03:57:30.752Z,0
2018-09-10T03:58:31.447Z,0
2018-09-10T03:59:32.691Z,0
2018-09-10T04:00:33.110Z,0
2018-09-10T04:01:33.923Z,0
2018-09-10T04:02:34.342Z,0
2018-09-10T04:03:34.753Z,0
2018-09-10T04:04:35.725Z,0
2018-09-10T04:05:36.419Z,0
2018-09-10T04:06:36.888Z,0
2018-09-10T04:07:36.582Z,0
2018-09-10T04:08:37.273Z,0
2018-09-10T04:09:37.979Z,0
2018-09-10T04:10:38.393Z,0
2018-09-10T04:11:38.658Z,0
2018-09-10T04:12:39.357Z,0
2018-09-10T04:13:40.050Z,0
2018-09-10T04:14:40.470Z,0
2018-09-10T04:15:41.165Z,0
2018-09-10T04:16:41.588Z,0
2018-09-10T04:17:42.000Z,0
2018-09-10T04:18:42.138Z,4
2018-09-10T04:19:43.386Z,4
2018-09-10T04:20:43.354Z,0
2018-09-10T04:21:43.617Z,0
2018-09-10T04:22:43.755Z,4
2018-09-10T04:23:43.889Z,0
2018-09-10T04:24:44.580Z,4
2018-09-10T04:25:44.271Z,0
2018-09-10T04:26:44.686Z,4
2018-09-10T04:27:45.102Z,4
2018-09-10T04:28:45.526Z,4
2018-09-10T04:29:46.516Z,4
2018-09-10T04:30:47.485Z,8
2018-09-10T04:31:47.192Z,8
2018-09-10T04:32:48.166Z,8
2018-09-10T04:33:48.411Z,12
2018-09-10T04:34:48.103Z,16
2018-09-10T04:35:48.514Z,16
2018-09-10T04:36:49.762Z,20
2018-09-10T04:37:49.452Z,24
2018-09-10T04:38:50.145Z,24
2018-09-10T04:39:50.282Z,28
2018-09-10T04:40:50.976Z,32
2018-09-10T04:41:50.961Z,32
2018-09-10T04:42:51.098Z,36
2018-09-10T04:43:51.514Z,44
2018-09-10T04:44:52.493Z,48
2018-09-10T04:45:53.459Z,52
2018-09-10T04:46:53.596Z,60
2018-09-10T04:47:54.845Z,68
2018-09-10T04:48:54.814Z,72
2018-09-10T04:49:55.785Z,80
2018-09-10T04:50:56.213Z,88
2018-09-10T04:51:56.754Z,96
2018-09-10T04:52:56.893Z,104
2018-09-10T04:53:57.317Z,116
2018-09-10T04:54:58.006Z,128
2018-09-10T04:55:58.712Z,136
2018-09-10T04:56:58.851Z,148
2018-09-10T04:57:59.886Z,160
2018-09-10T04:59:00.282Z,172
2018-09-10T05:00:00.975Z,184
2018-09-10T05:01:01.683Z,196
2018-09-10T05:02:01.392Z,204
2018-09-10T05:03:02.091Z,216
2018-09-10T05:04:02.227Z,228
2018-09-10T05:05:02.920Z,240
2018-09-10T05:06:03.334Z,256
2018-09-10T05:07:04.307Z,268
2018-09-10T05:08:04.444Z,272
2018-09-10T05:09:05.143Z,284
2018-09-10T05:10:06.074Z,292
2018-09-10T05:11:05.872Z,308
2018-09-10T05:12:06.858Z,324
2018-09-10T05:13:07.555Z,344
2018-09-10T05:14:07.975Z,368
2018-09-10T05:15:08.667Z,400
2018-09-10T05:16:09.644Z,432
2018-09-10T05:17:10.173Z,452
2018-09-10T05:18:09.599Z,468
2018-09-10T05:19:10.015Z,484
2018-09-10T05:20:10.707Z,508
2018-09-10T05:21:11.122Z,540
2018-09-10T05:22:12.097Z,568
2018-09-10T05:23:12.231Z,592
2018-09-10T05:24:13.205Z,616
2018-09-10T05:25:13.343Z,632
2018-09-10T05:26:14.038Z,632
2018-09-10T05:27:14.454Z,624
2018-09-10T05:28:15.714Z,632
2018-09-10T05:29:15.488Z,692
2018-09-10T05:30:16.193Z,740
2018-09-10T05:31:17.178Z,772
2018-09-10T05:32:17.442Z,788
2018-09-10T05:33:18.416Z,812
2018-09-10T05:34:18.833Z,852
2018-09-10T05:35:19.531Z,884
2018-09-10T05:36:20.228Z,912
2018-09-10T05:37:20.649Z,948
2018-09-10T05:38:21.337Z,1004
2018-09-10T05:39:21.755Z,1052
2018-09-10T05:40:22.175Z,1044
2018-09-10T05:41:23.425Z,948
2018-09-10T05:42:24.251Z,1044
2018-09-10T05:43:24.686Z,852
2018-09-10T05:44:25.107Z,860
2018-09-10T05:45:25.525Z,888
2018-09-10T05:46:26.221Z,916
2018-09-10T05:47:26.731Z,932
2018-09-10T05:48:27.726Z,960
2018-09-10T05:49:28.421Z,1000
2018-09-10T05:50:29.399Z,1060
2018-09-10T05:51:29.541Z,1084
2018-09-10T05:52:30.530Z,1116
2018-09-10T05:53:31.226Z,1236
2018-09-10T05:54:31.927Z,1164
2018-09-10T05:55:32.874Z,1204
2018-09-10T05:56:32.550Z,1304
2018-09-10T05:57:33.244Z,1412
2018-09-10T05:58:34.215Z,2020
2018-09-10T05:59:34.636Z,1952
2018-09-10T06:00:35.334Z,2016
2018-09-10T06:01:35.480Z,2132
2018-09-10T06:02:36.465Z,2208
2018-09-10T06:03:37.440Z,2220
2018-09-10T06:04:37.860Z,2204
2018-09-10T06:05:38.560Z,2160
2018-09-10T06:06:38.983Z,2124
2018-09-10T06:07:39.679Z,2012
2018-09-10T06:08:40.499Z,2092
2018-09-10T06:09:40.774Z,2100
2018-09-10T06:10:41.310Z,2104
2018-09-10T06:11:41.290Z,2120
2018-09-10T06:12:40.834Z,3944
2018-09-10T06:13:41.810Z,22432
2018-09-10T06:14:41.955Z,36160
2018-09-10T06:15:42.934Z,25056
2018-09-10T06:16:43.460Z,9704
2018-09-10T06:17:44.487Z,4084
2018-09-10T06:18:44.631Z,8320
2018-09-10T06:19:45.054Z,8256
2018-09-10T06:20:45.481Z,8520
2018-09-10T06:21:46.189Z,14592
2018-09-10T06:22:46.742Z,19232
2018-09-10T06:23:47.163Z,21856
2018-09-10T06:24:47.588Z,21984
2018-09-10T06:25:48.010Z,22880
2018-09-10T06:26:48.443Z,34240
2018-09-10T06:27:48.866Z,36448
2018-09-10T06:28:49.295Z,27232
2018-09-10T06:29:49.999Z,12424
2018-09-10T06:30:50.426Z,12400
2018-09-10T06:33:50.968Z,14048
2018-09-10T06:34:51.388Z,7560
2018-09-10T06:35:51.531Z,4936
2018-09-10T06:36:52.241Z,3664
2018-09-10T06:37:52.928Z,4224
2018-09-10T06:38:53.628Z,4792
2018-09-10T06:39:53.770Z,4484
2018-09-10T06:40:53.911Z,3812
2018-09-10T06:41:54.330Z,3548
2018-09-10T06:42:54.874Z,3216
2018-09-10T06:43:55.295Z,3100
2018-09-10T06:44:55.719Z,3068
2018-09-10T06:45:55.860Z,3012
2018-09-10T06:46:56.004Z,3040
2018-09-10T06:47:56.700Z,3056
2018-09-10T06:48:57.398Z,3076
2018-09-10T06:49:57.543Z,3112
2018-09-10T06:50:57.965Z,3172
2018-09-10T06:51:58.668Z,3208
2018-09-10T06:52:58.932Z,3220
2018-09-10T06:53:59.073Z,3248
2018-09-10T06:55:00.050Z,3264
2018-09-10T06:56:00.466Z,3408
2018-09-10T06:57:00.605Z,4004
2018-09-10T06:58:01.318Z,3388
2018-09-10T06:59:01.735Z,3340
2018-09-10T07:00:02.432Z,8952
2018-09-10T07:01:03.413Z,23104
2018-09-10T07:02:04.666Z,26816
2018-09-10T07:03:04.372Z,27200
2018-09-10T07:04:04.793Z,20608
2018-09-10T07:05:06.049Z,6472
2018-09-10T07:06:05.751Z,9764
2018-09-10T07:07:05.893Z,11608
2018-09-10T07:08:06.634Z,7172
2018-09-10T07:09:07.333Z,8220
2018-09-10T07:10:07.480Z,7688
2018-09-10T07:11:08.458Z,11116
2018-09-10T07:12:08.879Z,7536
2018-09-10T07:13:09.949Z,5564
2018-09-10T07:14:10.992Z,6188
2018-09-10T07:15:11.137Z,4776
2018-09-10T07:16:12.113Z,5392
2018-09-10T07:17:12.535Z,6624
2018-09-10T07:18:13.526Z,10192
2018-09-10T07:19:14.504Z,7304
2018-09-10T07:20:14.923Z,4420
2018-09-10T07:21:15.340Z,4664
2018-09-10T07:22:15.760Z,3584
2018-09-10T07:23:16.305Z,3464
2018-09-10T07:24:17.278Z,3460
2018-09-10T07:25:17.697Z,3412
2018-09-10T07:26:18.393Z,3572
2018-09-10T07:27:18.813Z,3664
2018-09-10T07:28:19.239Z,3768
2018-09-10T07:29:19.936Z,4964
2018-09-10T07:30:20.358Z,6008
2018-09-10T07:31:20.779Z,10532
2018-09-10T07:32:20.920Z,10412
2018-09-10T07:33:21.466Z,7812
2018-09-10T07:34:22.831Z,3812
2018-09-10T07:35:21.927Z,3364
2018-09-10T07:36:22.622Z,3416
2018-09-10T07:37:23.320Z,3388
2018-09-10T07:38:24.020Z,3668
2018-09-10T07:39:24.441Z,3356
2018-09-10T07:40:25.138Z,3332
2018-09-10T07:41:26.114Z,3792
2018-09-10T07:42:26.533Z,4100
2018-09-10T07:43:27.972Z,4524
2018-09-10T07:44:28.611Z,2976
2018-09-10T07:45:29.316Z,5592
2018-09-10T07:46:29.458Z,4708
2018-09-10T07:47:30.154Z,3352
2018-09-10T07:48:30.574Z,6444
2018-09-10T07:49:31.282Z,13064
2018-09-10T07:50:31.702Z,7160
2018-09-10T07:51:31.858Z,4564
2018-09-10T07:52:32.550Z,3268
2018-09-10T07:53:33.818Z,3264
2018-09-10T07:54:35.416Z,3320
2018-09-10T07:55:34.554Z,3220
2018-09-10T07:56:34.978Z,3240
2018-09-10T07:57:35.397Z,3300
2018-09-10T07:58:35.818Z,3320
2018-09-10T07:59:36.511Z,3424
2018-09-10T08:00:36.932Z,3528
2018-09-10T08:01:37.350Z,3924
2018-09-10T08:02:38.051Z,5820
2018-09-10T08:03:37.867Z,5156
2018-09-10T08:04:38.006Z,3596
2018-09-10T08:05:38.424Z,3792
2018-09-10T08:06:38.841Z,3844
2018-09-10T08:07:39.262Z,4048
2018-09-10T08:08:39.965Z,5440
2018-09-10T08:09:41.085Z,4576
2018-09-10T08:10:40.889Z,5028
2018-09-10T08:11:41.308Z,5180
2018-09-10T08:12:41.728Z,5064
2018-09-10T08:13:42.270Z,3840
2018-09-10T08:14:42.690Z,3772
2018-09-10T08:15:43.388Z,3204
2018-09-10T08:16:44.520Z,2952
2018-09-10T08:17:43.941Z,2792
2018-09-10T08:18:44.636Z,2728
2018-09-10T08:19:45.059Z,2680
2018-09-10T08:20:45.478Z,2664
2018-09-10T08:21:45.620Z,2644
2018-09-10T08:22:46.039Z,2708
2018-09-10T08:23:47.026Z,2820
2018-09-10T08:24:47.169Z,2960
2018-09-10T08:25:47.592Z,3004
2018-09-10T08:26:47.734Z,2820
2018-09-10T08:27:48.152Z,2652
2018-09-10T08:28:49.127Z,2676
2018-09-10T08:29:49.545Z,2764
2018-09-10T08:30:50.243Z,2916
2018-09-10T08:31:50.385Z,3044
2018-09-10T08:32:50.527Z,2912
2018-09-10T08:33:51.241Z,2612
2018-09-10T08:34:51.936Z,2324
2018-09-10T08:35:52.628Z,2480
2018-09-10T08:36:52.769Z,2668
2018-09-10T08:37:52.911Z,3048
2018-09-10T08:38:53.887Z,3124
2018-09-10T08:39:54.026Z,3232
2018-09-10T08:40:54.169Z,3244
2018-09-10T08:41:54.308Z,3244
2018-09-10T08:42:54.879Z,3352
2018-09-10T08:43:54.818Z,3464
2018-09-10T08:44:55.242Z,3520
2018-09-10T08:45:56.212Z,3648
2018-09-10T08:46:56.914Z,4000
2018-09-10T08:47:57.056Z,4132
2018-09-10T08:48:57.476Z,3888
2018-09-10T08:49:57.894Z,3392
2018-09-10T08:50:58.874Z,3276
2018-09-10T08:51:59.292Z,3184
2018-09-10T08:52:59.994Z,3100
2018-09-10T08:54:02.109Z,3112
2018-09-10T08:55:02.902Z,3404
2018-09-10T08:56:03.146Z,3244
2018-09-10T08:57:01.999Z,3256
2018-09-10T08:58:02.418Z,3344
2018-09-10T08:59:03.114Z,3356
2018-09-10T09:00:04.498Z,3420
2018-09-10T09:01:04.193Z,3752
2018-09-10T09:02:05.048Z,4044
2018-09-10T09:03:05.751Z,4228
2018-09-10T09:04:05.740Z,3584
2018-09-10T09:05:06.156Z,3608
2018-09-10T09:06:06.796Z,3340
2018-09-10T09:07:06.712Z,3220
2018-09-10T09:08:07.436Z,3128
2018-09-10T09:09:07.276Z,3104
2018-09-10T09:10:07.694Z,3080
2018-09-10T09:11:08.114Z,3036
2018-09-10T09:12:08.310Z,3076
2018-09-10T09:13:09.335Z,7252
2018-09-10T09:14:09.620Z,22720
2018-09-10T09:15:09.763Z,20608
2018-09-10T09:16:10.189Z,12140
2018-09-10T09:17:10.609Z,10652
2018-09-10T09:18:11.306Z,25696
2018-09-10T09:19:11.746Z,47392
2018-09-10T09:20:12.169Z,50272
2018-09-10T09:21:12.874Z,51008
2018-09-10T09:22:13.819Z,41184
2018-09-10T09:23:14.031Z,18112
2018-09-10T09:24:13.577Z,6724
2018-09-10T09:25:14.566Z,6396
2018-09-10T09:26:14.223Z,4016
2018-09-10T09:27:15.344Z,3440
2018-09-10T09:28:14.780Z,3596
2018-09-10T09:29:15.203Z,3588
2018-09-10T09:30:16.788Z,3728
2018-09-10T09:31:16.007Z,3808
2018-09-10T09:32:16.151Z,3996
2018-09-10T09:33:16.569Z,4280
2018-09-10T09:34:18.124Z,6556
2018-09-10T09:35:18.825Z,5880
2018-09-10T09:36:19.342Z,5204
2018-09-10T09:37:19.839Z,4988
2018-09-10T09:38:20.259Z,4660
2018-09-10T09:39:21.142Z,4256
2018-09-10T09:40:21.743Z,5824
2018-09-10T09:41:22.109Z,6504
2018-09-10T09:42:22.954Z,6096
2018-09-10T09:43:24.019Z,4840
2018-09-10T09:44:24.783Z,6536
2018-09-10T09:45:25.291Z,23296
2018-09-10T09:46:24.613Z,38976
2018-09-10T09:47:25.429Z,24928
2018-09-10T09:48:25.668Z,5344
2018-09-10T09:49:26.645Z,3496
2018-09-10T09:50:26.797Z,3480
2018-09-10T09:51:27.519Z,3504
2018-09-10T09:52:27.942Z,4240
2018-09-10T09:53:28.087Z,6232
2018-09-10T09:54:29.358Z,13928
2018-09-10T09:55:30.164Z,20352
2018-09-10T09:56:32.034Z,9312
2018-09-10T09:57:30.686Z,3724
2018-09-10T09:58:31.392Z,4792
2018-09-10T09:59:31.814Z,7308
2018-09-10T10:00:32.239Z,8736
2018-09-10T10:01:32.381Z,6468
2018-09-10T10:02:33.079Z,6304
2018-09-10T10:03:33.500Z,15744
2018-09-10T10:04:35.211Z,36000
2018-09-10T10:05:34.951Z,43744
2018-09-10T10:06:35.644Z,43456
2018-09-10T10:07:36.070Z,43424
2018-09-10T10:08:37.260Z,43648
2018-09-10T10:09:36.405Z,41728
2018-09-10T10:10:36.833Z,40704
2018-09-10T10:11:37.649Z,41408
2018-09-10T10:12:37.827Z,40832
2018-09-10T10:13:37.975Z,39360
2018-09-10T10:14:38.977Z,38656
2018-09-10T10:15:39.398Z,39328
2018-09-10T10:16:39.826Z,41664
2018-09-10T10:17:40.534Z,43232
2018-09-10T10:18:40.961Z,44768
2018-09-10T10:19:41.391Z,43776
2018-09-10T10:20:42.094Z,42016
2018-09-10T10:21:43.076Z,42304
2018-09-10T10:22:43.509Z,43328
2018-09-10T10:23:43.654Z,42432
2018-09-10T10:24:44.932Z,40352
2018-09-10T10:25:45.639Z,39008
2018-09-10T10:26:46.638Z,38976
2018-09-10T10:27:47.064Z,41088
2018-09-10T10:28:49.052Z,42176
2018-09-10T10:29:48.649Z,38816
2018-09-10T10:30:49.356Z,36992
2018-09-10T10:31:49.786Z,37312
2018-09-10T10:32:50.560Z,37216
2018-09-10T10:33:50.291Z,37088
2018-09-10T10:34:51.751Z,36320
2018-09-10T10:35:52.304Z,36512
2018-09-10T10:36:52.455Z,36672
2018-09-10T10:37:52.887Z,36608
2018-09-10T10:38:53.596Z,36512
2018-09-10T10:39:54.030Z,36640
2018-09-10T10:40:54.465Z,35936
2018-09-10T10:41:55.457Z,34400
2018-09-10T10:42:57.739Z,32928
2018-09-10T10:43:56.596Z,34176
2018-09-10T10:44:57.155Z,34592
2018-09-10T10:45:57.863Z,33248
2018-09-10T10:46:58.575Z,32032
2018-09-10T10:47:58.730Z,30784
2018-09-10T10:49:02.622Z,30016
2018-09-10T10:50:00.405Z,28928
2018-09-10T10:51:01.336Z,29056
2018-09-10T10:52:00.882Z,31104
2018-09-10T10:53:01.313Z,32768
2018-09-10T10:54:02.194Z,31264
2018-09-10T10:55:02.233Z,29728
2018-09-10T10:56:02.384Z,29376
2018-09-10T10:57:03.089Z,29728
2018-09-10T10:58:03.800Z,30048
2018-09-10T10:59:04.511Z,30208
2018-09-10T11:00:06.976Z,28256
2018-09-10T11:01:05.966Z,27840
2018-09-10T11:02:08.740Z,28416
2018-09-10T11:03:07.888Z,28064
2018-09-10T11:04:08.788Z,27712
2018-09-10T11:05:09.023Z,26752
2018-09-10T11:06:09.459Z,27296
2018-09-10T11:07:09.889Z,28800
2018-09-10T11:08:10.701Z,27872
2018-09-10T11:09:11.976Z,26752
2018-09-10T11:10:11.616Z,26976
2018-09-10T11:11:12.047Z,27232
2018-09-10T11:12:12.663Z,27040
2018-09-10T11:13:13.367Z,26080
2018-09-10T11:14:13.798Z,26048
2018-09-10T11:15:15.621Z,26272
2018-09-10T11:16:14.404Z,25856
2018-09-10T11:17:14.558Z,24384
2018-09-10T11:18:14.995Z,22592
2018-09-10T11:19:15.702Z,21888
2018-09-10T11:20:16.690Z,20832
2018-09-10T11:21:17.124Z,20832
2018-09-10T11:22:18.843Z,21440
2018-09-10T11:23:17.732Z,22912
2018-09-10T11:24:18.165Z,22752
2018-09-10T11:25:19.166Z,22240
2018-09-10T11:26:19.878Z,22720
2018-09-10T11:27:20.596Z,22144
2018-09-10T11:28:20.750Z,21280
2018-09-10T11:29:21.462Z,20736
2018-09-10T11:30:21.827Z,20256
2018-09-10T11:31:21.980Z,19968
2018-09-10T11:32:22.409Z,19552
2018-09-10T11:33:22.842Z,19424
2018-09-10T11:34:23.551Z,18976
2018-09-10T11:35:23.275Z,18624
2018-09-10T11:36:23.706Z,18272
2018-09-10T11:37:24.693Z,17344
2018-09-10T11:38:25.129Z,17376
2018-09-10T11:39:25.836Z,17152
2018-09-10T11:40:25.990Z,16960
2018-09-10T11:41:26.421Z,16800
2018-09-10T11:42:27.927Z,17024
2018-09-10T11:43:30.411Z,15872
2018-09-10T11:44:31.135Z,15744
2018-09-10T11:45:27.973Z,15744
2018-09-10T11:46:28.529Z,11804
2018-09-10T11:47:28.528Z,9192
2018-09-10T11:48:28.961Z,13888
2018-09-10T11:49:29.672Z,13708
2018-09-10T11:50:29.826Z,13856
2018-09-10T11:51:30.259Z,13408
2018-09-10T11:52:31.297Z,13004
2018-09-10T11:53:31.446Z,13068
2018-09-10T11:54:31.873Z,12832
2018-09-10T11:55:32.713Z,12564
2018-09-10T11:56:32.772Z,12256
2018-09-10T11:57:32.480Z,11772
2018-09-10T11:58:33.189Z,11504
2018-09-10T11:59:33.899Z,11456
2018-09-10T12:00:34.052Z,11056
2018-09-10T12:01:34.777Z,10552
2018-09-10T12:02:34.836Z,10124
2018-09-10T12:03:35.321Z,9992
2018-09-10T12:04:39.246Z,10156
2018-09-10T12:05:36.603Z,10076
2018-09-10T12:06:37.609Z,9832
2018-09-10T12:07:41.247Z,10036
2018-09-10T12:08:38.697Z,9812
2018-09-10T12:09:39.401Z,9748
2018-09-10T12:10:39.559Z,9604
2018-09-10T12:11:40.263Z,9576
2018-09-10T12:12:41.018Z,9488
2018-09-10T12:13:42.187Z,9404
2018-09-10T12:14:41.693Z,7356
2018-09-10T12:15:42.973Z,2612
2018-09-10T12:16:43.814Z,3292
2018-09-10T12:17:43.250Z,5232
2018-09-10T12:18:43.682Z,6328
2018-09-10T12:19:43.836Z,6024
2018-09-10T12:20:44.538Z,5824
2018-09-10T12:21:44.975Z,5120
2018-09-10T12:22:45.397Z,4980
2018-09-10T12:23:45.826Z,4612
2018-09-10T12:24:45.975Z,4892
2018-09-10T12:25:46.972Z,5408
2018-09-10T12:26:47.900Z,5592
2018-09-10T12:27:48.604Z,5544
2018-09-10T12:28:49.312Z,5896
2018-09-10T12:29:49.741Z,5360
2018-09-10T12:30:50.169Z,5236
2018-09-10T12:31:50.872Z,6348
2018-09-10T12:32:51.299Z,6952
2018-09-10T12:33:51.445Z,6632
2018-09-10T12:34:52.433Z,6980
2018-09-10T12:35:52.674Z,7052
2018-09-10T12:36:53.153Z,6324
2018-09-10T12:37:52.859Z,5312
2018-09-10T12:38:53.564Z,6524
2018-09-10T12:39:53.993Z,7400
2018-09-10T12:40:54.417Z,7264
2018-09-10T12:41:55.403Z,7576
2018-09-10T12:42:55.553Z,7540
2018-09-10T12:43:56.258Z,6444
2018-09-10T12:44:56.962Z,6180
2018-09-10T12:45:57.514Z,6212
2018-09-10T12:46:58.223Z,6476
2018-09-10T12:47:58.649Z,6436
2018-09-10T12:48:58.801Z,6232
2018-09-10T12:49:59.226Z,6512
2018-09-10T12:50:59.707Z,6452
2018-09-10T12:52:00.081Z,6724
2018-09-10T12:53:00.504Z,6512
2018-09-10T12:54:01.486Z,6640
2018-09-10T12:55:01.919Z,6468
2018-09-10T12:56:02.913Z,5884
2018-09-10T12:57:03.342Z,5456
2018-09-10T12:58:03.776Z,5524
2018-09-10T12:59:04.478Z,5148
2018-09-10T13:00:04.182Z,5360
2018-09-10T13:01:05.090Z,6024
2018-09-10T13:02:04.514Z,6824
2018-09-10T13:03:04.980Z,6308
2018-09-10T13:04:05.017Z,6564
2018-09-10T13:05:05.458Z,5024
2018-09-10T13:06:05.732Z,6108
2018-09-10T13:07:06.443Z,5148
2018-09-10T13:08:07.145Z,4304
2018-09-10T13:09:07.579Z,4888
2018-09-10T13:10:08.275Z,6756
2018-09-10T13:11:08.977Z,5588
2018-09-10T13:12:09.684Z,4880
2018-09-10T13:13:10.124Z,4088
2018-09-10T13:14:10.818Z,4728
2018-09-10T13:15:11.523Z,4128
2018-09-10T13:16:12.535Z,4024
2018-09-10T13:17:12.298Z,4132
2018-09-10T13:18:13.000Z,4388
2018-09-10T13:19:13.145Z,4248
2018-09-10T13:20:13.849Z,3892
2018-09-10T13:21:14.273Z,3944
2018-09-10T13:22:14.423Z,3924
2018-09-10T13:23:15.125Z,4128
2018-09-10T13:24:15.826Z,4052
2018-09-10T13:25:15.972Z,3864
2018-09-10T13:26:17.349Z,3864
2018-09-10T13:27:17.566Z,4256
2018-09-10T13:28:18.269Z,3732
2018-09-10T13:29:18.970Z,3808
2018-09-10T13:30:19.395Z,3932
2018-09-10T13:31:19.823Z,3692
2018-09-10T13:32:20.628Z,3768
2018-09-10T13:33:20.720Z,3972
2018-09-10T13:34:20.909Z,3676
2018-09-10T13:35:21.290Z,3576
2018-09-10T13:36:21.667Z,3656
2018-09-10T13:37:22.116Z,4324
2018-09-10T13:38:22.542Z,5264
2018-09-10T13:39:22.968Z,4468
2018-09-10T13:40:23.672Z,4964
2018-09-10T13:41:24.281Z,4936
2018-09-10T13:42:25.107Z,7768
2018-09-10T13:43:26.425Z,4964
2018-09-10T13:44:25.847Z,9064
2018-09-10T13:45:25.994Z,6264
2018-09-10T13:46:26.714Z,7776
2018-09-10T13:47:27.416Z,8256
2018-09-10T13:48:27.564Z,7712
2018-09-10T13:49:27.989Z,7916
2018-09-10T13:50:28.689Z,7552
2018-09-10T13:51:28.839Z,7432
2018-09-10T13:52:29.598Z,7524